sensor_id;sensor_type;location;lat;lon;timestamp;pressure;altitude;pressure_sealevel;temperature;humidity
6218;BME280;3142;48.206;11.550;2023-05-08T00:01:51;95965.88;;;18.35;62.42
6218;BME280;3142;48.206;11.550;2023-05-08T00:04:18;95967.25;;;18.38;62.03
6218;BME280;3142;48.206;11.550;2023-05-08T00:06:46;95962.53;;;18.23;62.33
6218;BME280;3142;48.206;11.550;2023-05-08T00:09:12;95971.28;;;18.23;63.14
6218;BME280;3142;48.206;11.550;2023-05-08T00:11:38;95966.00;;;18.23;63.11
6218;BME280;3142;48.206;11.550;2023-05-08T00:14:05;95967.09;;;18.27;62.70
6218;BME280;3142;48.206;11.550;2023-05-08T00:16:32;95973.03;;;18.34;62.15
6218;BME280;3142;48.206;11.550;2023-05-08T00:18:58;95967.97;;;18.33;62.27
6218;BME280;3142;48.206;11.550;2023-05-08T00:21:25;95973.19;;;18.28;62.58
6218;BME280;3142;48.206;11.550;2023-05-08T00:23:52;95967.31;;;18.09;63.52
6218;BME280;3142;48.206;11.550;2023-05-08T00:26:19;95962.00;;;17.92;63.07
6218;BME280;3142;48.206;11.550;2023-05-08T00:28:46;95969.44;;;17.79;63.77
6218;BME280;3142;48.206;11.550;2023-05-08T00:31:12;95971.47;;;17.71;64.45
6218;BME280;3142;48.206;11.550;2023-05-08T00:33:39;95978.34;;;17.72;64.60
6218;BME280;3142;48.206;11.550;2023-05-08T00:36:06;95976.28;;;17.74;64.02
6218;BME280;3142;48.206;11.550;2023-05-08T00:38:34;95966.56;;;17.80;63.39
6218;BME280;3142;48.206;11.550;2023-05-08T00:41:02;95977.50;;;17.55;64.29
6218;BME280;3142;48.206;11.550;2023-05-08T00:43:28;95977.78;;;17.42;64.72
6218;BME280;3142;48.206;11.550;2023-05-08T00:45:56;95980.97;;;17.44;64.67
6218;BME280;3142;48.206;11.550;2023-05-08T00:48:24;95978.41;;;17.49;64.11
6218;BME280;3142;48.206;11.550;2023-05-08T00:50:54;95979.72;;;17.35;64.60
6218;BME280;3142;48.206;11.550;2023-05-08T00:53:22;95973.44;;;17.24;64.80
6218;BME280;3142;48.206;11.550;2023-05-08T00:55:49;95971.34;;;17.26;65.16
6218;BME280;3142;48.206;11.550;2023-05-08T00:58:17;95970.88;;;17.41;64.67
6218;BME280;3142;48.206;11.550;2023-05-08T01:00:45;95968.56;;;17.44;64.30
6218;BME280;3142;48.206;11.550;2023-05-08T01:03:12;95974.03;;;17.55;64.17
6218;BME280;3142;48.206;11.550;2023-05-08T01:05:39;95971.69;;;17.70;63.90
6218;BME280;3142;48.206;11.550;2023-05-08T01:08:05;95970.28;;;17.67;63.15
6218;BME280;3142;48.206;11.550;2023-05-08T01:10:41;95975.53;;;17.51;64.29
6218;BME280;3142;48.206;11.550;2023-05-08T01:13:15;95974.31;;;17.41;64.32
6218;BME280;3142;48.206;11.550;2023-05-08T01:15:49;95972.69;;;17.40;64.76
6218;BME280;3142;48.206;11.550;2023-05-08T01:18:20;95971.84;;;17.52;64.09
6218;BME280;3142;48.206;11.550;2023-05-08T01:20:52;95975.25;;;17.64;63.65
6218;BME280;3142;48.206;11.550;2023-05-08T01:24:05;95980.31;;;17.65;64.04
6218;BME280;3142;48.206;11.550;2023-05-08T01:27:24;95988.69;;;17.45;63.93
6218;BME280;3142;48.206;11.550;2023-05-08T01:33:00;95989.94;;;17.14;64.63
6218;BME280;3142;48.206;11.550;2023-05-08T01:35:31;95993.94;;;17.17;65.46
6218;BME280;3142;48.206;11.550;2023-05-08T01:38:04;96000.63;;;17.08;65.29
6218;BME280;3142;48.206;11.550;2023-05-08T01:40:35;96006.38;;;16.93;65.46
6218;BME280;3142;48.206;11.550;2023-05-08T01:43:13;96010.06;;;16.92;65.99
6218;BME280;3142;48.206;11.550;2023-05-08T01:45:44;96016.38;;;17.14;65.33
6218;BME280;3142;48.206;11.550;2023-05-08T01:48:16;96015.41;;;17.21;64.92
6218;BME280;3142;48.206;11.550;2023-05-08T01:50:46;96017.75;;;17.17;64.85
6218;BME280;3142;48.206;11.550;2023-05-08T01:53:17;96015.56;;;17.02;65.03
6218;BME280;3142;48.206;11.550;2023-05-08T01:55:46;96029.03;;;16.89;65.73
6218;BME280;3142;48.206;11.550;2023-05-08T01:58:13;96020.88;;;17.02;65.73
6218;BME280;3142;48.206;11.550;2023-05-08T02:00:41;96016.56;;;17.13;65.42
6218;BME280;3142;48.206;11.550;2023-05-08T02:03:09;96019.34;;;17.06;65.68
6218;BME280;3142;48.206;11.550;2023-05-08T02:05:40;96021.31;;;16.99;65.72
6218;BME280;3142;48.206;11.550;2023-05-08T02:08:10;96017.50;;;17.07;65.44
6218;BME280;3142;48.206;11.550;2023-05-08T02:10:39;96026.00;;;17.09;65.54
6218;BME280;3142;48.206;11.550;2023-05-08T02:13:07;96019.69;;;16.98;65.75
6218;BME280;3142;48.206;11.550;2023-05-08T02:15:36;96014.44;;;16.86;64.94
6218;BME280;3142;48.206;11.550;2023-05-08T02:18:04;96018.78;;;16.93;64.90
6218;BME280;3142;48.206;11.550;2023-05-08T02:20:32;96020.28;;;16.65;65.12
6218;BME280;3142;48.206;11.550;2023-05-08T02:23:01;96025.88;;;16.57;65.58
6218;BME280;3142;48.206;11.550;2023-05-08T02:25:29;96019.56;;;16.58;65.71
6218;BME280;3142;48.206;11.550;2023-05-08T02:27:56;96026.13;;;16.55;65.81
6218;BME280;3142;48.206;11.550;2023-05-08T02:30:24;96021.84;;;16.43;65.90
6218;BME280;3142;48.206;11.550;2023-05-08T02:32:52;96013.59;;;16.51;65.70
6218;BME280;3142;48.206;11.550;2023-05-08T02:35:21;96020.38;;;16.47;65.90
6218;BME280;3142;48.206;11.550;2023-05-08T02:37:51;96026.56;;;16.41;65.68
6218;BME280;3142;48.206;11.550;2023-05-08T02:40:24;96032.06;;;16.27;65.97
6218;BME280;3142;48.206;11.550;2023-05-08T02:42:53;96029.06;;;16.24;65.80
6218;BME280;3142;48.206;11.550;2023-05-08T02:45:21;96024.72;;;16.18;66.39
6218;BME280;3142;48.206;11.550;2023-05-08T02:47:52;96031.81;;;16.29;65.79
6218;BME280;3142;48.206;11.550;2023-05-08T02:50:28;96035.41;;;16.35;65.97
6218;BME280;3142;48.206;11.550;2023-05-08T02:53:01;96033.59;;;16.47;65.52
6218;BME280;3142;48.206;11.550;2023-05-08T02:55:33;96035.53;;;16.40;65.22
6218;BME280;3142;48.206;11.550;2023-05-08T02:58:11;96036.41;;;16.22;65.67
6218;BME280;3142;48.206;11.550;2023-05-08T03:00:44;96033.41;;;16.07;65.91
6218;BME280;3142;48.206;11.550;2023-05-08T03:03:16;96038.41;;;15.96;65.88
6218;BME280;3142;48.206;11.550;2023-05-08T03:05:49;96033.81;;;15.92;65.89
6218;BME280;3142;48.206;11.550;2023-05-08T03:08:18;96039.69;;;15.94;65.79
6218;BME280;3142;48.206;11.550;2023-05-08T03:10:50;96036.25;;;15.75;65.94
6218;BME280;3142;48.206;11.550;2023-05-08T03:13:18;96035.91;;;15.72;66.17
6218;BME280;3142;48.206;11.550;2023-05-08T03:15:50;96043.75;;;15.78;65.79
6218;BME280;3142;48.206;11.550;2023-05-08T03:18:21;96040.97;;;15.73;65.89
6218;BME280;3142;48.206;11.550;2023-05-08T03:20:50;96037.91;;;15.76;65.72
6218;BME280;3142;48.206;11.550;2023-05-08T03:23:19;96035.53;;;15.98;65.11
6218;BME280;3142;48.206;11.550;2023-05-08T03:25:48;96040.59;;;15.99;64.83
6218;BME280;3142;48.206;11.550;2023-05-08T03:28:16;96035.50;;;15.86;65.20
6218;BME280;3142;48.206;11.550;2023-05-08T03:30:43;96040.56;;;15.88;64.96
6218;BME280;3142;48.206;11.550;2023-05-08T03:33:11;96029.88;;;15.83;65.35
6218;BME280;3142;48.206;11.550;2023-05-08T03:35:38;96046.28;;;15.85;64.94
6218;BME280;3142;48.206;11.550;2023-05-08T03:38:05;96046.97;;;15.80;65.08
6218;BME280;3142;48.206;11.550;2023-05-08T03:40:33;96045.75;;;15.64;65.69
6218;BME280;3142;48.206;11.550;2023-05-08T03:43:04;96044.19;;;15.57;65.78
6218;BME280;3142;48.206;11.550;2023-05-08T03:45:33;96044.28;;;15.50;66.19
6218;BME280;3142;48.206;11.550;2023-05-08T03:48:00;96047.66;;;15.39;66.25
6218;BME280;3142;48.206;11.550;2023-05-08T03:50:28;96045.63;;;15.23;67.33
6218;BME280;3142;48.206;11.550;2023-05-08T03:52:55;96051.97;;;15.15;66.98
6218;BME280;3142;48.206;11.550;2023-05-08T03:55:23;96048.63;;;15.08;67.37
6218;BME280;3142;48.206;11.550;2023-05-08T03:57:55;96056.31;;;15.09;67.41
6218;BME280;3142;48.206;11.550;2023-05-08T04:00:28;96061.34;;;15.11;67.93
6218;BME280;3142;48.206;11.550;2023-05-08T04:03:08;96061.28;;;14.99;67.40
6218;BME280;3142;48.206;11.550;2023-05-08T04:05:41;96063.47;;;15.02;67.26
6218;BME280;3142;48.206;11.550;2023-05-08T04:08:14;96062.44;;;15.03;67.60
6218;BME280;3142;48.206;11.550;2023-05-08T04:10:45;96059.88;;;14.97;67.33
6218;BME280;3142;48.206;11.550;2023-05-08T04:13:17;96068.00;;;14.95;67.29
6218;BME280;3142;48.206;11.550;2023-05-08T04:15:49;96063.88;;;14.81;67.96
6218;BME280;3142;48.206;11.550;2023-05-08T04:18:18;96067.97;;;14.77;67.83
6218;BME280;3142;48.206;11.550;2023-05-08T04:20:48;96072.63;;;14.75;67.39
6218;BME280;3142;48.206;11.550;2023-05-08T04:23:17;96073.88;;;14.72;68.24
6218;BME280;3142;48.206;11.550;2023-05-08T04:25:45;96077.38;;;14.66;67.40
6218;BME280;3142;48.206;11.550;2023-05-08T04:28:14;96081.69;;;14.61;68.02
6218;BME280;3142;48.206;11.550;2023-05-08T04:30:41;96074.63;;;14.79;67.96
6218;BME280;3142;48.206;11.550;2023-05-08T04:33:09;96073.56;;;15.05;66.41
6218;BME280;3142;48.206;11.550;2023-05-08T04:35:36;96079.19;;;14.91;66.26
6218;BME280;3142;48.206;11.550;2023-05-08T04:38:02;96084.63;;;14.96;66.85
6218;BME280;3142;48.206;11.550;2023-05-08T04:40:29;96086.13;;;14.85;66.36
6218;BME280;3142;48.206;11.550;2023-05-08T04:42:55;96094.28;;;14.77;66.25
6218;BME280;3142;48.206;11.550;2023-05-08T04:45:22;96088.75;;;14.85;66.60
6218;BME280;3142;48.206;11.550;2023-05-08T04:47:48;96093.28;;;14.78;66.65
6218;BME280;3142;48.206;11.550;2023-05-08T04:50:16;96093.59;;;14.88;66.71
6218;BME280;3142;48.206;11.550;2023-05-08T04:52:42;96093.84;;;15.05;66.43
6218;BME280;3142;48.206;11.550;2023-05-08T04:55:09;96091.88;;;15.00;65.40
6218;BME280;3142;48.206;11.550;2023-05-08T04:57:35;96100.72;;;15.06;65.83
6218;BME280;3142;48.206;11.550;2023-05-08T05:00:02;96097.28;;;15.05;66.10
6218;BME280;3142;48.206;11.550;2023-05-08T05:02:30;96108.50;;;15.19;65.68
6218;BME280;3142;48.206;11.550;2023-05-08T05:04:56;96105.44;;;15.22;66.08
6218;BME280;3142;48.206;11.550;2023-05-08T05:07:26;96109.25;;;15.08;66.13
6218;BME280;3142;48.206;11.550;2023-05-08T05:09:53;96115.47;;;15.14;66.17
6218;BME280;3142;48.206;11.550;2023-05-08T05:12:19;96111.22;;;15.13;65.06
6218;BME280;3142;48.206;11.550;2023-05-08T05:14:45;96119.22;;;15.24;65.23
6218;BME280;3142;48.206;11.550;2023-05-08T05:17:12;96115.34;;;15.02;65.37
6218;BME280;3142;48.206;11.550;2023-05-08T05:19:38;96119.84;;;14.76;65.97
6218;BME280;3142;48.206;11.550;2023-05-08T05:22:05;96122.34;;;14.65;66.40
6218;BME280;3142;48.206;11.550;2023-05-08T05:24:33;96126.00;;;14.64;66.14
6218;BME280;3142;48.206;11.550;2023-05-08T05:27:00;96124.59;;;14.68;66.28
6218;BME280;3142;48.206;11.550;2023-05-08T05:29:26;96121.31;;;14.66;65.54
6218;BME280;3142;48.206;11.550;2023-05-08T05:31:54;96128.06;;;14.62;65.86
6218;BME280;3142;48.206;11.550;2023-05-08T05:34:20;96131.38;;;14.50;66.86
6218;BME280;3142;48.206;11.550;2023-05-08T05:36:47;96129.78;;;14.43;65.56
6218;BME280;3142;48.206;11.550;2023-05-08T05:39:13;96139.47;;;14.56;66.47
6218;BME280;3142;48.206;11.550;2023-05-08T05:41:41;96139.84;;;14.52;65.98
6218;BME280;3142;48.206;11.550;2023-05-08T05:44:08;96136.72;;;14.69;66.14
6218;BME280;3142;48.206;11.550;2023-05-08T05:46:35;96140.75;;;14.71;64.88
6218;BME280;3142;48.206;11.550;2023-05-08T05:49:01;96143.28;;;14.60;65.49
6218;BME280;3142;48.206;11.550;2023-05-08T05:51:28;96153.75;;;14.66;65.74
6218;BME280;3142;48.206;11.550;2023-05-08T05:53:54;96155.09;;;14.75;65.20
6218;BME280;3142;48.206;11.550;2023-05-08T05:56:21;96154.19;;;14.88;64.41
6218;BME280;3142;48.206;11.550;2023-05-08T05:58:49;96149.47;;;14.97;64.70
6218;BME280;3142;48.206;11.550;2023-05-08T06:01:16;96149.06;;;15.18;63.64
6218;BME280;3142;48.206;11.550;2023-05-08T06:03:42;96158.19;;;14.97;63.70
6218;BME280;3142;48.206;11.550;2023-05-08T06:06:09;96153.22;;;14.82;64.36
6218;BME280;3142;48.206;11.550;2023-05-08T06:08:35;96159.72;;;14.80;64.54
6218;BME280;3142;48.206;11.550;2023-05-08T06:11:01;96157.25;;;14.60;64.25
6218;BME280;3142;48.206;11.550;2023-05-08T06:13:28;96150.00;;;14.56;65.20
6218;BME280;3142;48.206;11.550;2023-05-08T06:15:56;96154.47;;;14.48;64.07
6218;BME280;3142;48.206;11.550;2023-05-08T06:18:23;96154.09;;;14.45;64.31
6218;BME280;3142;48.206;11.550;2023-05-08T06:20:55;96156.94;;;14.75;64.81
6218;BME280;3142;48.206;11.550;2023-05-08T06:23:22;96160.59;;;14.74;65.00
6218;BME280;3142;48.206;11.550;2023-05-08T06:25:49;96158.00;;;14.67;64.99
6218;BME280;3142;48.206;11.550;2023-05-08T06:28:15;96160.13;;;14.52;65.52
6218;BME280;3142;48.206;11.550;2023-05-08T06:30:42;96163.22;;;14.42;65.59
6218;BME280;3142;48.206;11.550;2023-05-08T06:33:09;96165.59;;;14.12;66.62
6218;BME280;3142;48.206;11.550;2023-05-08T06:35:36;96171.63;;;14.19;66.56
6218;BME280;3142;48.206;11.550;2023-05-08T06:38:03;96166.06;;;14.34;66.46
6218;BME280;3142;48.206;11.550;2023-05-08T06:40:29;96164.53;;;14.27;66.41
6218;BME280;3142;48.206;11.550;2023-05-08T06:42:55;96163.88;;;14.31;66.69
6218;BME280;3142;48.206;11.550;2023-05-08T06:45:22;96170.50;;;14.40;66.94
6218;BME280;3142;48.206;11.550;2023-05-08T06:47:48;96159.13;;;14.78;66.92
6218;BME280;3142;48.206;11.550;2023-05-08T06:50:16;96164.88;;;14.93;66.64
6218;BME280;3142;48.206;11.550;2023-05-08T06:52:42;96172.19;;;15.16;65.49
6218;BME280;3142;48.206;11.550;2023-05-08T06:55:09;96165.06;;;15.41;64.35
6218;BME280;3142;48.206;11.550;2023-05-08T06:57:35;96171.22;;;15.54;64.20
6218;BME280;3142;48.206;11.550;2023-05-08T07:00:02;96168.06;;;15.45;63.78
6218;BME280;3142;48.206;11.550;2023-05-08T07:02:29;96176.28;;;15.37;64.05
6218;BME280;3142;48.206;11.550;2023-05-08T07:04:55;96171.22;;;15.35;63.64
6218;BME280;3142;48.206;11.550;2023-05-08T07:07:23;96181.47;;;15.44;63.29
6218;BME280;3142;48.206;11.550;2023-05-08T07:09:49;96177.03;;;15.19;63.64
6218;BME280;3142;48.206;11.550;2023-05-08T07:12:16;96184.41;;;15.10;64.28
6218;BME280;3142;48.206;11.550;2023-05-08T07:14:42;96187.38;;;14.96;63.89
6218;BME280;3142;48.206;11.550;2023-05-08T07:17:09;96174.94;;;15.03;64.92
6218;BME280;3142;48.206;11.550;2023-05-08T07:19:35;96177.78;;;15.26;63.97
6218;BME280;3142;48.206;11.550;2023-05-08T07:22:02;96175.97;;;15.27;64.48
6218;BME280;3142;48.206;11.550;2023-05-08T07:24:30;96176.34;;;15.49;63.67
6218;BME280;3142;48.206;11.550;2023-05-08T07:26:57;96182.63;;;15.73;62.85
6218;BME280;3142;48.206;11.550;2023-05-08T07:29:24;96185.81;;;15.56;63.18
6218;BME280;3142;48.206;11.550;2023-05-08T07:31:51;96186.03;;;15.55;63.27
6218;BME280;3142;48.206;11.550;2023-05-08T07:34:17;96185.09;;;15.49;62.54
6218;BME280;3142;48.206;11.550;2023-05-08T07:36:44;96183.09;;;15.45;62.60
6218;BME280;3142;48.206;11.550;2023-05-08T07:39:10;96179.81;;;15.49;62.80
6218;BME280;3142;48.206;11.550;2023-05-08T07:41:38;96188.66;;;15.80;62.42
6218;BME280;3142;48.206;11.550;2023-05-08T07:44:05;96195.00;;;15.72;62.30
6218;BME280;3142;48.206;11.550;2023-05-08T07:46:31;96188.69;;;15.73;62.40
6218;BME280;3142;48.206;11.550;2023-05-08T07:48:58;96188.50;;;15.93;62.02
6218;BME280;3142;48.206;11.550;2023-05-08T07:51:24;96191.19;;;16.05;61.56
6218;BME280;3142;48.206;11.550;2023-05-08T07:53:51;96184.44;;;16.09;61.45
6218;BME280;3142;48.206;11.550;2023-05-08T07:56:19;96194.25;;;16.02;61.98
6218;BME280;3142;48.206;11.550;2023-05-08T07:58:47;96186.59;;;16.30;60.92
6218;BME280;3142;48.206;11.550;2023-05-08T08:01:13;96194.16;;;16.45;61.05
6218;BME280;3142;48.206;11.550;2023-05-08T08:03:42;96189.59;;;16.64;60.31
6218;BME280;3142;48.206;11.550;2023-05-08T08:06:08;96192.16;;;16.70;59.78
6218;BME280;3142;48.206;11.550;2023-05-08T08:08:35;96198.75;;;16.79;59.21
6218;BME280;3142;48.206;11.550;2023-05-08T08:11:01;96194.19;;;16.98;58.35
6218;BME280;3142;48.206;11.550;2023-05-08T08:13:28;96189.03;;;17.03;58.12
6218;BME280;3142;48.206;11.550;2023-05-08T08:15:55;96191.47;;;17.28;57.05
6218;BME280;3142;48.206;11.550;2023-05-08T08:18:22;96190.19;;;17.07;57.39
6218;BME280;3142;48.206;11.550;2023-05-08T08:20:48;96195.47;;;17.07;57.96
6218;BME280;3142;48.206;11.550;2023-05-08T08:23:15;96190.53;;;17.11;57.19
6218;BME280;3142;48.206;11.550;2023-05-08T08:25:41;96188.22;;;17.03;58.42
6218;BME280;3142;48.206;11.550;2023-05-08T08:28:07;96194.78;;;17.35;57.90
6218;BME280;3142;48.206;11.550;2023-05-08T08:30:34;96192.16;;;17.24;58.00
6218;BME280;3142;48.206;11.550;2023-05-08T08:33:02;96200.31;;;17.34;57.60
6218;BME280;3142;48.206;11.550;2023-05-08T08:35:31;96199.38;;;17.40;57.45
6218;BME280;3142;48.206;11.550;2023-05-08T08:37:57;96194.25;;;17.68;56.71
6218;BME280;3142;48.206;11.550;2023-05-08T08:40:24;96198.13;;;17.54;55.78
6218;BME280;3142;48.206;11.550;2023-05-08T08:42:50;96195.75;;;17.41;56.67
6218;BME280;3142;48.206;11.550;2023-05-08T08:45:17;96198.72;;;17.33;57.02
6218;BME280;3142;48.206;11.550;2023-05-08T08:47:44;96197.91;;;17.21;57.25
6218;BME280;3142;48.206;11.550;2023-05-08T08:50:13;96192.50;;;17.15;56.85
6218;BME280;3142;48.206;11.550;2023-05-08T08:52:45;96195.47;;;17.07;57.71
6218;BME280;3142;48.206;11.550;2023-05-08T08:55:15;96199.94;;;17.07;58.49
6218;BME280;3142;48.206;11.550;2023-05-08T08:57:50;96195.34;;;17.02;58.47
6218;BME280;3142;48.206;11.550;2023-05-08T09:00:19;96190.75;;;17.21;58.37
6218;BME280;3142;48.206;11.550;2023-05-08T09:02:46;96200.22;;;17.29;57.32
6218;BME280;3142;48.206;11.550;2023-05-08T09:05:14;96193.31;;;17.16;57.41
6218;BME280;3142;48.206;11.550;2023-05-08T09:07:41;96194.56;;;17.13;57.16
6218;BME280;3142;48.206;11.550;2023-05-08T09:10:09;96195.72;;;17.17;57.48
6218;BME280;3142;48.206;11.550;2023-05-08T09:12:39;96190.31;;;17.36;57.64
6218;BME280;3142;48.206;11.550;2023-05-08T09:15:06;96194.22;;;17.80;56.91
6218;BME280;3142;48.206;11.550;2023-05-08T09:17:32;96188.91;;;17.92;56.41
6218;BME280;3142;48.206;11.550;2023-05-08T09:19:59;96192.75;;;17.84;55.92
6218;BME280;3142;48.206;11.550;2023-05-08T09:22:27;96189.03;;;17.62;57.19
6218;BME280;3142;48.206;11.550;2023-05-08T09:24:55;96192.19;;;17.70;57.10
6218;BME280;3142;48.206;11.550;2023-05-08T09:27:24;96196.03;;;17.68;57.63
6218;BME280;3142;48.206;11.550;2023-05-08T09:30:02;96199.63;;;17.50;56.59
6218;BME280;3142;48.206;11.550;2023-05-08T09:32:29;96206.19;;;17.36;57.34
6218;BME280;3142;48.206;11.550;2023-05-08T09:34:56;96202.38;;;17.08;57.60
6218;BME280;3142;48.206;11.550;2023-05-08T09:37:24;96207.06;;;16.65;58.41
6218;BME280;3142;48.206;11.550;2023-05-08T09:39:52;96202.16;;;16.68;58.84
6218;BME280;3142;48.206;11.550;2023-05-08T09:42:19;96197.94;;;16.79;59.21
6218;BME280;3142;48.206;11.550;2023-05-08T09:44:47;96203.94;;;16.86;59.19
6218;BME280;3142;48.206;11.550;2023-05-08T09:47:15;96209.06;;;17.23;58.65
6218;BME280;3142;48.206;11.550;2023-05-08T09:49:56;96200.44;;;17.39;58.92
6218;BME280;3142;48.206;11.550;2023-05-08T09:52:23;96194.91;;;17.64;58.20
6218;BME280;3142;48.206;11.550;2023-05-08T09:54:56;96196.03;;;17.91;58.17
6218;BME280;3142;48.206;11.550;2023-05-08T09:57:24;96200.06;;;17.94;57.58
6218;BME280;3142;48.206;11.550;2023-05-08T09:59:59;96204.00;;;17.91;56.53
6218;BME280;3142;48.206;11.550;2023-05-08T10:02:26;96199.63;;;17.85;57.89
6218;BME280;3142;48.206;11.550;2023-05-08T10:04:53;96204.47;;;17.88;57.94
6218;BME280;3142;48.206;11.550;2023-05-08T10:07:26;96206.78;;;17.85;57.96
6218;BME280;3142;48.206;11.550;2023-05-08T10:10:01;96201.88;;;18.45;56.94
6218;BME280;3142;48.206;11.550;2023-05-08T10:12:29;96199.97;;;18.57;54.79
6218;BME280;3142;48.206;11.550;2023-05-08T10:14:55;96204.94;;;18.66;54.91
6218;BME280;3142;48.206;11.550;2023-05-08T10:17:30;96198.69;;;18.72;55.71
6218;BME280;3142;48.206;11.550;2023-05-08T10:20:05;96204.00;;;18.60;55.60
6218;BME280;3142;48.206;11.550;2023-05-08T10:22:35;96198.75;;;18.77;54.92
6218;BME280;3142;48.206;11.550;2023-05-08T10:25:09;96190.75;;;18.88;55.71
6218;BME280;3142;48.206;11.550;2023-05-08T10:27:42;96192.50;;;18.83;55.44
6218;BME280;3142;48.206;11.550;2023-05-08T10:30:12;96191.31;;;19.41;55.07
6218;BME280;3142;48.206;11.550;2023-05-08T10:32:42;96182.47;;;19.91;53.90
6218;BME280;3142;48.206;11.550;2023-05-08T10:35:10;96185.00;;;20.46;52.45
6218;BME280;3142;48.206;11.550;2023-05-08T10:37:37;96180.50;;;20.47;50.83
6218;BME280;3142;48.206;11.550;2023-05-08T10:40:08;96181.13;;;19.88;51.96
6218;BME280;3142;48.206;11.550;2023-05-08T10:42:35;96183.56;;;19.73;52.57
6218;BME280;3142;48.206;11.550;2023-05-08T10:45:03;96181.69;;;19.90;52.95
6218;BME280;3142;48.206;11.550;2023-05-08T10:47:38;96183.44;;;19.85;52.60
6218;BME280;3142;48.206;11.550;2023-05-08T10:50:18;96176.47;;;19.06;53.92
6218;BME280;3142;48.206;11.550;2023-05-08T10:52:51;96175.72;;;19.28;53.64
6218;BME280;3142;48.206;11.550;2023-05-08T10:55:27;96175.63;;;19.56;54.26
6218;BME280;3142;48.206;11.550;2023-05-08T10:58:02;96180.25;;;20.48;53.24
6218;BME280;3142;48.206;11.550;2023-05-08T11:00:31;96166.41;;;20.73;52.71
6218;BME280;3142;48.206;11.550;2023-05-08T11:03:04;96169.16;;;21.15;52.08
6218;BME280;3142;48.206;11.550;2023-05-08T11:05:44;96171.28;;;21.18;50.82
6218;BME280;3142;48.206;11.550;2023-05-08T11:08:13;96162.19;;;21.41;50.55
6218;BME280;3142;48.206;11.550;2023-05-08T11:10:42;96170.88;;;21.32;50.58
6218;BME280;3142;48.206;11.550;2023-05-08T11:13:10;96174.97;;;21.12;50.96
6218;BME280;3142;48.206;11.550;2023-05-08T11:15:38;96170.69;;;21.38;50.41
6218;BME280;3142;48.206;11.550;2023-05-08T11:18:06;96169.09;;;21.42;50.63
6218;BME280;3142;48.206;11.550;2023-05-08T11:20:38;96164.34;;;21.97;50.36
6218;BME280;3142;48.206;11.550;2023-05-08T11:23:22;96156.25;;;22.39;48.44
6218;BME280;3142;48.206;11.550;2023-05-08T11:25:59;96153.59;;;22.59;48.57
6218;BME280;3142;48.206;11.550;2023-05-08T11:28:27;96150.72;;;22.76;47.76
6218;BME280;3142;48.206;11.550;2023-05-08T11:30:54;96150.44;;;22.77;47.59
6218;BME280;3142;48.206;11.550;2023-05-08T11:33:21;96153.03;;;22.42;48.09
6218;BME280;3142;48.206;11.550;2023-05-08T11:35:53;96154.34;;;22.24;49.00
6218;BME280;3142;48.206;11.550;2023-05-08T11:38:33;96147.41;;;22.33;49.04
6218;BME280;3142;48.206;11.550;2023-05-08T11:41:03;96149.50;;;22.16;48.89
6218;BME280;3142;48.206;11.550;2023-05-08T11:43:53;96160.53;;;21.82;49.46
6218;BME280;3142;48.206;11.550;2023-05-08T11:46:34;96159.16;;;21.75;49.80
6218;BME280;3142;48.206;11.550;2023-05-08T11:49:01;96157.28;;;21.75;49.76
6218;BME280;3142;48.206;11.550;2023-05-08T11:51:30;96151.72;;;21.77;50.32
6218;BME280;3142;48.206;11.550;2023-05-08T11:53:57;96155.44;;;21.76;50.57
6218;BME280;3142;48.206;11.550;2023-05-08T11:56:25;96154.53;;;21.55;50.61
6218;BME280;3142;48.206;11.550;2023-05-08T11:59:00;96156.06;;;21.46;50.23
6218;BME280;3142;48.206;11.550;2023-05-08T12:01:27;96163.69;;;21.32;50.98
6218;BME280;3142;48.206;11.550;2023-05-08T12:03:59;96158.50;;;21.15;51.18
6218;BME280;3142;48.206;11.550;2023-05-08T12:06:26;96169.97;;;21.21;51.21
6218;BME280;3142;48.206;11.550;2023-05-08T12:08:52;96160.31;;;21.10;51.67
6218;BME280;3142;48.206;11.550;2023-05-08T12:11:21;96166.53;;;20.88;51.29
6218;BME280;3142;48.206;11.550;2023-05-08T12:13:51;96156.53;;;21.00;51.34
6218;BME280;3142;48.206;11.550;2023-05-08T12:16:17;96166.22;;;21.17;50.84
6218;BME280;3142;48.206;11.550;2023-05-08T12:18:48;96166.44;;;21.10;50.73
6218;BME280;3142;48.206;11.550;2023-05-08T12:21:14;96165.13;;;21.13;50.44
6218;BME280;3142;48.206;11.550;2023-05-08T12:23:41;96169.59;;;20.75;50.79
6218;BME280;3142;48.206;11.550;2023-05-08T12:26:07;96169.63;;;20.80;51.64
6218;BME280;3142;48.206;11.550;2023-05-08T12:28:34;96159.38;;;20.94;50.90
6218;BME280;3142;48.206;11.550;2023-05-08T12:31:02;96166.03;;;20.91;51.58
6218;BME280;3142;48.206;11.550;2023-05-08T12:33:28;96163.53;;;20.80;51.73
6218;BME280;3142;48.206;11.550;2023-05-08T12:35:56;96159.59;;;20.87;51.64
6218;BME280;3142;48.206;11.550;2023-05-08T12:38:24;96163.66;;;20.95;50.88
6218;BME280;3142;48.206;11.550;2023-05-08T12:40:51;96167.38;;;20.67;51.83
6218;BME280;3142;48.206;11.550;2023-05-08T12:43:20;96165.63;;;20.78;51.82
6218;BME280;3142;48.206;11.550;2023-05-08T12:45:49;96163.00;;;20.83;51.26
6218;BME280;3142;48.206;11.550;2023-05-08T12:48:18;96166.06;;;20.69;51.85
6218;BME280;3142;48.206;11.550;2023-05-08T12:50:45;96160.69;;;20.37;51.84
6218;BME280;3142;48.206;11.550;2023-05-08T12:53:13;96165.28;;;20.20;52.11
6218;BME280;3142;48.206;11.550;2023-05-08T12:55:49;96166.91;;;20.43;52.93
6218;BME280;3142;48.206;11.550;2023-05-08T12:58:17;96164.47;;;20.41;52.43
6218;BME280;3142;48.206;11.550;2023-05-08T13:00:44;96158.50;;;20.07;52.25
6218;BME280;3142;48.206;11.550;2023-05-08T13:03:12;96158.63;;;19.96;52.69
6218;BME280;3142;48.206;11.550;2023-05-08T13:05:43;96157.16;;;20.05;52.69
6218;BME280;3142;48.206;11.550;2023-05-08T13:08:10;96157.41;;;20.03;52.59
6218;BME280;3142;48.206;11.550;2023-05-08T13:10:48;96154.56;;;19.88;53.43
6218;BME280;3142;48.206;11.550;2023-05-08T13:13:16;96157.88;;;20.00;52.62
6218;BME280;3142;48.206;11.550;2023-05-08T13:15:43;96151.16;;;19.93;53.12
6218;BME280;3142;48.206;11.550;2023-05-08T13:18:09;96158.25;;;19.87;53.47
6218;BME280;3142;48.206;11.550;2023-05-08T13:20:36;96153.44;;;19.84;52.77
6218;BME280;3142;48.206;11.550;2023-05-08T13:23:04;96154.03;;;19.69;53.04